sensor_id;sensor_type;location;lat;lon;timestamp;pressure;altitude;pressure_sealevel;temperature;humidity
15674;BME280;7937;48.090;16.212;2024-03-02T00:02:45;96898.69;;;2.91;100.00
15674;BME280;7937;48.090;16.212;2024-03-02T00:05:49;96900.19;;;2.73;100.00
15674;BME280;7937;48.090;16.212;2024-03-02T00:08:57;96896.97;;;2.71;100.00
15674;BME280;7937;48.090;16.212;2024-03-02T00:12:00;96899.44;;;2.66;100.00
15674;BME280;7937;48.090;16.212;2024-03-02T00:15:06;96903.50;;;2.94;100.00
15674;BME280;7937;48.090;16.212;2024-03-02T00:18:33;96899.50;;;2.53;100.00
15674;BME280;7937;48.090;16.212;2024-03-02T00:21:37;96899.56;;;2.40;100.00
15674;BME280;7937;48.090;16.212;2024-03-02T00:24:39;96894.72;;;2.37;100.00
15674;BME280;7937;48.090;16.212;2024-03-02T00:27:42;96899.69;;;2.58;100.00
15674;BME280;7937;48.090;16.212;2024-03-02T00:33:48;96902.31;;;2.58;100.00
15674;BME280;7937;48.090;16.212;2024-03-02T00:36:50;96904.88;;;2.71;100.00
15674;BME280;7937;48.090;16.212;2024-03-02T00:39:53;96893.13;;;2.29;100.00
15674;BME280;7937;48.090;16.212;2024-03-02T00:42:55;96903.25;;;2.25;100.00
15674;BME280;7937;48.090;16.212;2024-03-02T00:45:58;96894.78;;;2.23;100.00
15674;BME280;7937;48.090;16.212;2024-03-02T00:49:02;96899.41;;;2.28;100.00
15674;BME280;7937;48.090;16.212;2024-03-02T00:52:05;96897.75;;;2.33;100.00
15674;BME280;7937;48.090;16.212;2024-03-02T00:55:08;96884.09;;;2.18;100.00
15674;BME280;7937;48.090;16.212;2024-03-02T00:58:11;96899.22;;;2.16;100.00
15674;BME280;7937;48.090;16.212;2024-03-02T01:01:13;96873.03;;;2.03;100.00
15674;BME280;7937;48.090;16.212;2024-03-02T01:04:16;96897.47;;;2.03;100.00
15674;BME280;7937;48.090;16.212;2024-03-02T01:07:18;96890.00;;;2.07;100.00
15674;BME280;7937;48.090;16.212;2024-03-02T01:10:20;96894.03;;;2.03;100.00
15674;BME280;7937;48.090;16.212;2024-03-02T01:13:22;96891.81;;;2.00;100.00
15674;BME280;7937;48.090;16.212;2024-03-02T01:16:25;96880.03;;;2.22;100.00
15674;BME280;7937;48.090;16.212;2024-03-02T01:19:27;96881.63;;;2.23;100.00
15674;BME280;7937;48.090;16.212;2024-03-02T01:22:29;96879.06;;;2.10;100.00
15674;BME280;7937;48.090;16.212;2024-03-02T01:25:32;96882.03;;;2.27;100.00
15674;BME280;7937;48.090;16.212;2024-03-02T01:28:34;96877.41;;;2.22;100.00
15674;BME280;7937;48.090;16.212;2024-03-02T01:31:36;96867.25;;;2.26;100.00
15674;BME280;7937;48.090;16.212;2024-03-02T01:34:38;96872.31;;;2.27;100.00
15674;BME280;7937;48.090;16.212;2024-03-02T01:37:41;96868.63;;;2.35;100.00
15674;BME280;7937;48.090;16.212;2024-03-02T01:40:43;96862.78;;;2.33;100.00
15674;BME280;7937;48.090;16.212;2024-03-02T01:43:48;96864.72;;;2.13;100.00
15674;BME280;7937;48.090;16.212;2024-03-02T01:46:50;96861.38;;;2.30;100.00
15674;BME280;7937;48.090;16.212;2024-03-02T01:49:54;96862.44;;;2.16;100.00
15674;BME280;7937;48.090;16.212;2024-03-02T01:52:56;96864.94;;;2.04;100.00
15674;BME280;7937;48.090;16.212;2024-03-02T01:55:58;96861.47;;;2.11;100.00
15674;BME280;7937;48.090;16.212;2024-03-02T01:59:01;96850.31;;;2.22;100.00
15674;BME280;7937;48.090;16.212;2024-03-02T02:02:03;96865.06;;;2.16;100.00
15674;BME280;7937;48.090;16.212;2024-03-02T02:05:05;96837.81;;;2.17;100.00
15674;BME280;7937;48.090;16.212;2024-03-02T02:08:08;96854.03;;;2.08;100.00
15674;BME280;7937;48.090;16.212;2024-03-02T02:11:10;96851.97;;;2.10;100.00
15674;BME280;7937;48.090;16.212;2024-03-02T02:14:12;96849.13;;;2.11;100.00
15674;BME280;7937;48.090;16.212;2024-03-02T02:17:14;96848.28;;;2.24;100.00
15674;BME280;7937;48.090;16.212;2024-03-02T02:20:16;96854.19;;;2.06;100.00
15674;BME280;7937;48.090;16.212;2024-03-02T02:23:18;96850.16;;;2.10;100.00
15674;BME280;7937;48.090;16.212;2024-03-02T02:26:21;96834.97;;;2.19;100.00
15674;BME280;7937;48.090;16.212;2024-03-02T02:29:23;96824.03;;;2.22;100.00
15674;BME280;7937;48.090;16.212;2024-03-02T02:32:25;96836.00;;;2.18;100.00
15674;BME280;7937;48.090;16.212;2024-03-02T02:35:27;96833.38;;;2.11;100.00
15674;BME280;7937;48.090;16.212;2024-03-02T02:38:30;96832.03;;;2.40;100.00
15674;BME280;7937;48.090;16.212;2024-03-02T02:41:34;96822.50;;;2.08;100.00
15674;BME280;7937;48.090;16.212;2024-03-02T02:44:36;96824.25;;;2.20;100.00
15674;BME280;7937;48.090;16.212;2024-03-02T02:47:38;96820.06;;;2.06;100.00
15674;BME280;7937;48.090;16.212;2024-03-02T02:50:41;96826.13;;;2.06;100.00
15674;BME280;7937;48.090;16.212;2024-03-02T02:53:43;96828.97;;;2.05;100.00
15674;BME280;7937;48.090;16.212;2024-03-02T02:56:45;96814.44;;;1.96;100.00
15674;BME280;7937;48.090;16.212;2024-03-02T02:59:48;96834.34;;;2.17;100.00
15674;BME280;7937;48.090;16.212;2024-03-02T03:02:50;96808.81;;;1.92;100.00
15674;BME280;7937;48.090;16.212;2024-03-02T03:05:52;96797.16;;;1.75;100.00
15674;BME280;7937;48.090;16.212;2024-03-02T03:08:54;96828.16;;;2.04;100.00
15674;BME280;7937;48.090;16.212;2024-03-02T03:11:57;96828.47;;;2.28;100.00
15674;BME280;7937;48.090;16.212;2024-03-02T03:14:59;96824.91;;;2.09;100.00
15674;BME280;7937;48.090;16.212;2024-03-02T03:18:03;96822.59;;;2.26;100.00
15674;BME280;7937;48.090;16.212;2024-03-02T03:21:05;96820.91;;;2.00;100.00
15674;BME280;7937;48.090;16.212;2024-03-02T03:24:07;96822.13;;;1.97;100.00
15674;BME280;7937;48.090;16.212;2024-03-02T03:27:10;96821.69;;;2.07;100.00
15674;BME280;7937;48.090;16.212;2024-03-02T03:30:13;96824.97;;;2.34;100.00
15674;BME280;7937;48.090;16.212;2024-03-02T03:33:16;96832.00;;;2.02;100.00
15674;BME280;7937;48.090;16.212;2024-03-02T03:36:18;96835.22;;;2.04;100.00
15674;BME280;7937;48.090;16.212;2024-03-02T03:39:21;96830.97;;;2.10;100.00
15674;BME280;7937;48.090;16.212;2024-03-02T03:42:23;96820.84;;;2.13;100.00
15674;BME280;7937;48.090;16.212;2024-03-02T03:45:25;96829.19;;;2.03;100.00
15674;BME280;7937;48.090;16.212;2024-03-02T03:48:28;96824.72;;;2.04;100.00
15674;BME280;7937;48.090;16.212;2024-03-02T03:51:33;96823.47;;;2.06;100.00
15674;BME280;7937;48.090;16.212;2024-03-02T03:54:35;96821.88;;;2.12;100.00
15674;BME280;7937;48.090;16.212;2024-03-02T03:57:39;96832.47;;;1.92;100.00
15674;BME280;7937;48.090;16.212;2024-03-02T04:00:42;96831.69;;;1.78;100.00
15674;BME280;7937;48.090;16.212;2024-03-02T04:03:44;96830.34;;;2.14;100.00
15674;BME280;7937;48.090;16.212;2024-03-02T04:06:46;96831.88;;;2.28;100.00
15674;BME280;7937;48.090;16.212;2024-03-02T04:09:49;96831.53;;;2.18;100.00
15674;BME280;7937;48.090;16.212;2024-03-02T04:12:51;96842.34;;;1.90;100.00
15674;BME280;7937;48.090;16.212;2024-03-02T04:15:53;96843.00;;;1.72;100.00
15674;BME280;7937;48.090;16.212;2024-03-02T04:18:56;96841.19;;;1.66;100.00
15674;BME280;7937;48.090;16.212;2024-03-02T04:21:58;96841.00;;;1.61;100.00
15674;BME280;7937;48.090;16.212;2024-03-02T04:25:10;96844.22;;;1.70;100.00
15674;BME280;7937;48.090;16.212;2024-03-02T04:28:12;96848.59;;;2.02;100.00
15674;BME280;7937;48.090;16.212;2024-03-02T04:31:15;96851.69;;;1.66;100.00
15674;BME280;7937;48.090;16.212;2024-03-02T04:34:18;96846.91;;;1.50;100.00
15674;BME280;7937;48.090;16.212;2024-03-02T04:37:20;96838.44;;;1.41;100.00
15674;BME280;7937;48.090;16.212;2024-03-02T04:40:22;96863.47;;;1.37;100.00
15674;BME280;7937;48.090;16.212;2024-03-02T04:43:24;96861.81;;;1.43;100.00
15674;BME280;7937;48.090;16.212;2024-03-02T04:46:26;96868.28;;;1.47;100.00
15674;BME280;7937;48.090;16.212;2024-03-02T04:49:28;96869.13;;;1.34;100.00
15674;BME280;7937;48.090;16.212;2024-03-02T04:52:32;96864.06;;;1.33;100.00
15674;BME280;7937;48.090;16.212;2024-03-02T04:55:34;96873.94;;;1.37;100.00
15674;BME280;7937;48.090;16.212;2024-03-02T04:58:36;96874.38;;;1.21;100.00
15674;BME280;7937;48.090;16.212;2024-03-02T05:01:38;96878.22;;;1.18;100.00
15674;BME280;7937;48.090;16.212;2024-03-02T05:04:40;96890.94;;;1.35;100.00
15674;BME280;7937;48.090;16.212;2024-03-02T05:07:43;96883.06;;;1.35;100.00
15674;BME280;7937;48.090;16.212;2024-03-02T05:10:46;96893.72;;;1.66;100.00
15674;BME280;7937;48.090;16.212;2024-03-02T05:13:48;96893.91;;;1.78;100.00
15674;BME280;7937;48.090;16.212;2024-03-02T05:16:50;96883.53;;;2.03;100.00
15674;BME280;7937;48.090;16.212;2024-03-02T05:19:52;96871.16;;;2.10;100.00
15674;BME280;7937;48.090;16.212;2024-03-02T05:22:54;96879.41;;;2.27;100.00
15674;BME280;7937;48.090;16.212;2024-03-02T05:25:56;96875.38;;;2.24;100.00
15674;BME280;7937;48.090;16.212;2024-03-02T05:28:58;96882.03;;;2.20;100.00
15674;BME280;7937;48.090;16.212;2024-03-02T05:32:01;96891.34;;;2.23;100.00
15674;BME280;7937;48.090;16.212;2024-03-02T05:35:04;96885.56;;;2.46;100.00
15674;BME280;7937;48.090;16.212;2024-03-02T05:38:07;96888.06;;;2.34;100.00
15674;BME280;7937;48.090;16.212;2024-03-02T05:41:09;96895.81;;;2.61;100.00
15674;BME280;7937;48.090;16.212;2024-03-02T05:44:11;96898.47;;;2.54;100.00
15674;BME280;7937;48.090;16.212;2024-03-02T05:47:14;96893.50;;;2.39;100.00
15674;BME280;7937;48.090;16.212;2024-03-02T05:50:16;96886.38;;;2.46;100.00
15674;BME280;7937;48.090;16.212;2024-03-02T05:53:18;96888.31;;;2.64;100.00
15674;BME280;7937;48.090;16.212;2024-03-02T05:56:20;96905.25;;;2.37;100.00
15674;BME280;7937;48.090;16.212;2024-03-02T05:59:22;96903.69;;;2.22;100.00
15674;BME280;7937;48.090;16.212;2024-03-02T06:02:24;96913.34;;;2.28;100.00
15674;BME280;7937;48.090;16.212;2024-03-02T06:05:26;96910.97;;;2.14;100.00
15674;BME280;7937;48.090;16.212;2024-03-02T06:08:28;96913.41;;;2.09;100.00
15674;BME280;7937;48.090;16.212;2024-03-02T06:11:31;96921.09;;;2.10;100.00
15674;BME280;7937;48.090;16.212;2024-03-02T06:14:33;96923.50;;;2.12;100.00
15674;BME280;7937;48.090;16.212;2024-03-02T06:17:35;96928.75;;;2.12;100.00
15674;BME280;7937;48.090;16.212;2024-03-02T06:20:37;96938.44;;;2.11;100.00
15674;BME280;7937;48.090;16.212;2024-03-02T06:23:40;96934.84;;;2.12;100.00
15674;BME280;7937;48.090;16.212;2024-03-02T06:26:42;96936.63;;;2.12;100.00
15674;BME280;7937;48.090;16.212;2024-03-02T06:29:44;96912.44;;;2.03;100.00
15674;BME280;7937;48.090;16.212;2024-03-02T06:32:46;96925.75;;;2.08;100.00
15674;BME280;7937;48.090;16.212;2024-03-02T06:35:48;96926.72;;;2.20;100.00
15674;BME280;7937;48.090;16.212;2024-03-02T06:38:51;96926.19;;;2.56;100.00
15674;BME280;7937;48.090;16.212;2024-03-02T06:41:53;96916.94;;;2.41;100.00
15674;BME280;7937;48.090;16.212;2024-03-02T06:44:55;96922.44;;;2.32;100.00
15674;BME280;7937;48.090;16.212;2024-03-02T06:47:57;96926.88;;;2.32;100.00
15674;BME280;7937;48.090;16.212;2024-03-02T06:50:59;96928.28;;;2.35;100.00
15674;BME280;7937;48.090;16.212;2024-03-02T06:54:03;96925.63;;;2.41;100.00
15674;BME280;7937;48.090;16.212;2024-03-02T06:57:05;96934.31;;;2.48;100.00
15674;BME280;7937;48.090;16.212;2024-03-02T07:00:07;96933.50;;;2.48;100.00
15674;BME280;7937;48.090;16.212;2024-03-02T07:03:10;96939.50;;;2.62;100.00
15674;BME280;7937;48.090;16.212;2024-03-02T07:06:13;96937.47;;;2.64;100.00
15674;BME280;7937;48.090;16.212;2024-03-02T07:09:15;96926.94;;;2.64;100.00
15674;BME280;7937;48.090;16.212;2024-03-02T07:12:17;96933.19;;;2.69;100.00
15674;BME280;7937;48.090;16.212;2024-03-02T07:15:19;96929.72;;;2.75;100.00
15674;BME280;7937;48.090;16.212;2024-03-02T07:18:30;96927.44;;;2.85;100.00
15674;BME280;7937;48.090;16.212;2024-03-02T07:21:33;96929.44;;;2.90;100.00
15674;BME280;7937;48.090;16.212;2024-03-02T07:24:42;96928.78;;;2.95;100.00
15674;BME280;7937;48.090;16.212;2024-03-02T07:27:44;96932.03;;;2.97;100.00
15674;BME280;7937;48.090;16.212;2024-03-02T07:30:46;96938.59;;;3.13;100.00
15674;BME280;7937;48.090;16.212;2024-03-02T07:33:48;96943.47;;;3.41;100.00
15674;BME280;7937;48.090;16.212;2024-03-02T07:36:51;96948.53;;;3.42;100.00
15674;BME280;7937;48.090;16.212;2024-03-02T07:39:53;96960.25;;;3.46;100.00
15674;BME280;7937;48.090;16.212;2024-03-02T07:42:55;96958.16;;;3.55;100.00
15674;BME280;7937;48.090;16.212;2024-03-02T07:45:58;96954.66;;;3.61;100.00
15674;BME280;7937;48.090;16.212;2024-03-02T07:49:00;96967.28;;;3.77;100.00
15674;BME280;7937;48.090;16.212;2024-03-02T07:52:03;96960.44;;;4.13;100.00
15674;BME280;7937;48.090;16.212;2024-03-02T07:55:05;96962.59;;;4.23;100.00
15674;BME280;7937;48.090;16.212;2024-03-02T07:58:08;96946.56;;;4.24;100.00
15674;BME280;7937;48.090;16.212;2024-03-02T08:01:11;96935.38;;;4.29;100.00
15674;BME280;7937;48.090;16.212;2024-03-02T08:04:13;96959.22;;;4.52;100.00
15674;BME280;7937;48.090;16.212;2024-03-02T08:07:18;96955.91;;;4.57;100.00
15674;BME280;7937;48.090;16.212;2024-03-02T08:10:20;96962.66;;;4.71;100.00
15674;BME280;7937;48.090;16.212;2024-03-02T08:13:22;96950.19;;;4.78;100.00
15674;BME280;7937;48.090;16.212;2024-03-02T08:16:25;96959.00;;;5.02;100.00
15674;BME280;7937;48.090;16.212;2024-03-02T08:19:27;96959.28;;;5.12;100.00
15674;BME280;7937;48.090;16.212;2024-03-02T08:22:29;96961.03;;;5.30;100.00
15674;BME280;7937;48.090;16.212;2024-03-02T08:25:31;96964.75;;;5.41;100.00
15674;BME280;7937;48.090;16.212;2024-03-02T08:28:34;96948.34;;;5.51;100.00
15674;BME280;7937;48.090;16.212;2024-03-02T08:31:36;96931.47;;;5.63;100.00
15674;BME280;7937;48.090;16.212;2024-03-02T08:34:42;96958.06;;;5.92;100.00
15674;BME280;7937;48.090;16.212;2024-03-02T08:37:44;96957.25;;;6.15;100.00
15674;BME280;7937;48.090;16.212;2024-03-02T08:40:47;96953.53;;;6.39;100.00
15674;BME280;7937;48.090;16.212;2024-03-02T08:43:49;96944.81;;;6.51;100.00
15674;BME280;7937;48.090;16.212;2024-03-02T08:46:51;96946.59;;;6.62;100.00
15674;BME280;7937;48.090;16.212;2024-03-02T08:49:53;96949.75;;;6.87;100.00
15674;BME280;7937;48.090;16.212;2024-03-02T08:53:03;96945.06;;;7.06;100.00
15674;BME280;7937;48.090;16.212;2024-03-02T08:56:06;96948.31;;;7.25;100.00
15674;BME280;7937;48.090;16.212;2024-03-02T08:59:08;96942.72;;;7.55;100.00
15674;BME280;7937;48.090;16.212;2024-03-02T09:02:10;96949.06;;;7.71;100.00
15674;BME280;7937;48.090;16.212;2024-03-02T09:05:13;96947.72;;;7.85;100.00
15674;BME280;7937;48.090;16.212;2024-03-02T09:08:15;96955.25;;;8.10;100.00
15674;BME280;7937;48.090;16.212;2024-03-02T09:11:17;96945.47;;;8.33;100.00
15674;BME280;7937;48.090;16.212;2024-03-02T09:14:19;96946.25;;;8.50;100.00
15674;BME280;7937;48.090;16.212;2024-03-02T09:17:22;96939.81;;;8.46;100.00
15674;BME280;7937;48.090;16.212;2024-03-02T09:20:24;96919.03;;;8.60;100.00
15674;BME280;7937;48.090;16.212;2024-03-02T09:23:26;96940.69;;;8.73;100.00
15674;BME280;7937;48.090;16.212;2024-03-02T09:26:28;96919.41;;;8.68;100.00
15674;BME280;7937;48.090;16.212;2024-03-02T09:29:31;96945.50;;;8.98;100.00
15674;BME280;7937;48.090;16.212;2024-03-02T09:32:33;96939.78;;;9.12;100.00
15674;BME280;7937;48.090;16.212;2024-03-02T09:35:35;96936.50;;;9.26;100.00
15674;BME280;7937;48.090;16.212;2024-03-02T09:38:37;96929.22;;;9.49;100.00
15674;BME280;7937;48.090;16.212;2024-03-02T09:41:40;96933.78;;;9.53;100.00
15674;BME280;7937;48.090;16.212;2024-03-02T09:44:42;96923.88;;;9.76;100.00
15674;BME280;7937;48.090;16.212;2024-03-02T09:47:45;96929.22;;;9.81;100.00
15674;BME280;7937;48.090;16.212;2024-03-02T09:50:47;96924.47;;;9.88;100.00
15674;BME280;7937;48.090;16.212;2024-03-02T09:53:49;96921.06;;;9.93;100.00
15674;BME280;7937;48.090;16.212;2024-03-02T09:56:52;96927.81;;;10.05;100.00
15674;BME280;7937;48.090;16.212;2024-03-02T09:59:55;96924.91;;;10.12;98.39
15674;BME280;7937;48.090;16.212;2024-03-02T10:02:57;96927.88;;;10.16;99.17
15674;BME280;7937;48.090;16.212;2024-03-02T10:06:22;96919.41;;;10.24;100.00
15674;BME280;7937;48.090;16.212;2024-03-02T10:09:28;96926.13;;;10.31;98.13
15674;BME280;7937;48.090;16.212;2024-03-02T10:12:33;96928.88;;;10.52;96.87
15674;BME280;7937;48.090;16.212;2024-03-02T10:15:37;96936.34;;;10.50;86.25
15674;BME280;7937;48.090;16.212;2024-03-02T10:18:42;96936.56;;;10.48;86.53
15674;BME280;7937;48.090;16.212;2024-03-02T10:21:46;96934.94;;;10.42;84.75
15674;BME280;7937;48.090;16.212;2024-03-02T10:24:49;96937.09;;;10.40;86.91
15674;BME280;7937;48.090;16.212;2024-03-02T10:27:59;96934.44;;;10.45;87.04
15674;BME280;7937;48.090;16.212;2024-03-02T10:31:07;96939.22;;;10.43;88.03
15674;BME280;7937;48.090;16.212;2024-03-02T10:34:11;96934.94;;;10.42;90.88
15674;BME280;7937;48.090;16.212;2024-03-02T10:37:14;96930.22;;;10.49;89.36
15674;BME280;7937;48.090;16.212;2024-03-02T10:40:17;96938.47;;;10.58;89.49
15674;BME280;7937;48.090;16.212;2024-03-02T10:43:20;96933.94;;;10.53;91.10
15674;BME280;7937;48.090;16.212;2024-03-02T10:46:22;96929.13;;;10.45;90.72
15674;BME280;7937;48.090;16.212;2024-03-02T10:49:26;96933.84;;;10.33;92.19
15674;BME280;7937;48.090;16.212;2024-03-02T10:52:29;96930.38;;;10.32;92.31
15674;BME280;7937;48.090;16.212;2024-03-02T10:55:32;96928.00;;;10.36;91.69
15674;BME280;7937;48.090;16.212;2024-03-02T10:58:36;96917.88;;;10.38;91.78
15674;BME280;7937;48.090;16.212;2024-03-02T11:01:39;96920.09;;;10.51;91.12
15674;BME280;7937;48.090;16.212;2024-03-02T11:04:46;96921.22;;;10.71;89.58
15674;BME280;7937;48.090;16.212;2024-03-02T11:07:49;96919.84;;;10.63;89.48
15674;BME280;7937;48.090;16.212;2024-03-02T11:10:57;96920.66;;;10.64;88.86
15674;BME280;7937;48.090;16.212;2024-03-02T11:14:01;96900.41;;;10.63;87.90
15674;BME280;7937;48.090;16.212;2024-03-02T11:17:14;96911.34;;;10.61;89.90
15674;BME280;7937;48.090;16.212;2024-03-02T11:20:20;96902.00;;;10.58;90.22
15674;BME280;7937;48.090;16.212;2024-03-02T11:23:32;96925.19;;;10.68;90.70
15674;BME280;7937;48.090;16.212;2024-03-02T11:26:38;96926.22;;;10.57;92.33
15674;BME280;7937;48.090;16.212;2024-03-02T11:29:42;96920.09;;;10.51;93.03
15674;BME280;7937;48.090;16.212;2024-03-02T11:32:55;96927.59;;;10.65;93.01
15674;BME280;7937;48.090;16.212;2024-03-02T11:35:57;96918.06;;;10.74;92.70
15674;BME280;7937;48.090;16.212;2024-03-02T11:39:00;96926.03;;;10.74;92.62
15674;BME280;7937;48.090;16.212;2024-03-02T11:42:02;96921.47;;;10.64;93.34
15674;BME280;7937;48.090;16.212;2024-03-02T11:45:08;96923.38;;;10.21;96.38
15674;BME280;7937;48.090;16.212;2024-03-02T11:48:14;96931.75;;;10.40;96.61
15674;BME280;7937;48.090;16.212;2024-03-02T11:51:16;96912.59;;;10.48;96.75
15674;BME280;7937;48.090;16.212;2024-03-02T11:54:19;96930.00;;;10.66;94.40
15674;BME280;7937;48.090;16.212;2024-03-02T11:57:22;96929.72;;;10.63;95.22
15674;BME280;7937;48.090;16.212;2024-03-02T12:00:24;96931.56;;;10.62;95.47
15674;BME280;7937;48.090;16.212;2024-03-02T12:03:26;96923.25;;;10.48;96.34
15674;BME280;7937;48.090;16.212;2024-03-02T12:06:29;96929.13;;;10.45;97.07
15674;BME280;7937;48.090;16.212;2024-03-02T12:09:31;96915.72;;;10.30;98.72
15674;BME280;7937;48.090;16.212;2024-03-02T12:12:33;96924.38;;;10.63;96.95
15674;BME280;7937;48.090;16.212;2024-03-02T12:15:37;96928.38;;;10.60;97.44
15674;BME280;7937;48.090;16.212;2024-03-02T12:18:41;96934.09;;;10.31;97.76
15674;BME280;7937;48.090;16.212;2024-03-02T12:21:45;96919.19;;;10.30;98.70
15674;BME280;7937;48.090;16.212;2024-03-02T12:24:48;96916.91;;;10.54;95.96
15674;BME280;7937;48.090;16.212;2024-03-02T12:27:53;96914.78;;;10.56;95.42
15674;BME280;7937;48.090;16.212;2024-03-02T12:30:56;96919.34;;;10.66;95.09
15674;BME280;7937;48.090;16.212;2024-03-02T12:33:58;96906.56;;;10.68;94.03
15674;BME280;7937;48.090;16.212;2024-03-02T12:37:01;96919.66;;;10.80;93.76
15674;BME280;7937;48.090;16.212;2024-03-02T12:40:03;96914.59;;;10.78;94.13
15674;BME280;7937;48.090;16.212;2024-03-02T12:43:07;96910.88;;;10.74;95.00
15674;BME280;7937;48.090;16.212;2024-03-02T12:46:10;96906.88;;;10.87;93.95
15674;BME280;7937;48.090;16.212;2024-03-02T12:49:14;96918.63;;;10.91;94.32
15674;BME280;7937;48.090;16.212;2024-03-02T12:52:22;96913.88;;;11.03;93.68
15674;BME280;7937;48.090;16.212;2024-03-02T12:55:25;96900.56;;;11.08;91.71
15674;BME280;7937;48.090;16.212;2024-03-02T12:58:27;96896.03;;;11.19;90.84
15674;BME280;7937;48.090;16.212;2024-03-02T13:01:31;96901.59;;;11.07;93.25
15674;BME280;7937;48.090;16.212;2024-03-02T13:04:33;96887.50;;;11.17;91.74
15674;BME280;7937;48.090;16.212;2024-03-02T13:07:36;96894.97;;;11.25;92.49
15674;BME280;7937;48.090;16.212;2024-03-02T13:10:38;96900.81;;;11.22;92.33
15674;BME280;7937;48.090;16.212;2024-03-02T13:13:41;96888.06;;;11.24;91.53
15674;BME280;7937;48.090;16.212;2024-03-02T13:16:44;96897.13;;;11.33;91.11
15674;BME280;7937;48.090;16.212;2024-03-02T13:19:52;96893.38;;;11.45;90.22
15674;BME280;7937;48.090;16.212;2024-03-02T13:22:55;96880.34;;;11.43;89.49
15674;BME280;7937;48.090;16.212;2024-03-02T13:25:58;96870.47;;;11.28;90.33
15674;BME280;7937;48.090;16.212;2024-03-02T13:29:00;96884.31;;;11.30;90.85
15674;BME280;7937;48.090;16.212;2024-03-02T13:32:02;96885.38;;;11.29;90.68
15674;BME280;7937;48.090;16.212;2024-03-02T13:35:04;96892.72;;;10.66;94.41
15674;BME280;7937;48.090;16.212;2024-03-02T13:38:07;96893.75;;;10.55;96.85
15674;BME280;7937;48.090;16.212;2024-03-02T13:41:09;96893.97;;;10.53;97.97
15674;BME280;7937;48.090;16.212;2024-03-02T13:44:12;96879.53;;;10.39;98.33
15674;BME280;7937;48.090;16.212;2024-03-02T13:47:14;96887.81;;;10.38;99.58
15674;BME280;7937;48.090;16.212;2024-03-02T13:50:17;96890.44;;;10.32;100.00
15674;BME280;7937;48.090;16.212;2024-03-02T13:53:19;96864.31;;;10.24;99.03
15674;BME280;7937;48.090;16.212;2024-03-02T13:56:22;96897.97;;;10.51;99.31
15674;BME280;7937;48.090;16.212;2024-03-02T13:59:26;96904.09;;;10.46;100.00
15674;BME280;7937;48.090;16.212;2024-03-02T14:02:28;96897.97;;;10.46;100.00
15674;BME280;7937;48.090;16.212;2024-03-02T14:05:31;96884.94;;;10.49;99.58
15674;BME280;7937;48.090;16.212;2024-03-02T14:08:33;96909.19;;;10.63;99.24
15674;BME280;7937;48.090;16.212;2024-03-02T14:11:37;96906.50;;;10.53;100.00
15674;BME280;7937;48.090;16.212;2024-03-02T14:14:39;96906.25;;;10.49;100.00
15674;BME280;7937;48.090;16.212;2024-03-02T14:17:42;96906.25;;;10.54;100.00
15674;BME280;7937;48.090;16.212;2024-03-02T14:20:44;96896.09;;;10.46;100.00
15674;BME280;7937;48.090;16.212;2024-03-02T14:23:48;96898.81;;;10.56;100.00
15674;BME280;7937;48.090;16.212;2024-03-02T14:26:50;96898.59;;;10.73;100.00
15674;BME280;7937;48.090;16.212;2024-03-02T14:29:54;96895.38;;;10.66;100.00
15674;BME280;7937;48.090;16.212;2024-03-02T14:32:56;96884.97;;;10.54;100.00
15674;BME280;7937;48.090;16.212;2024-03-02T14:35:58;96903.63;;;10.59;100.00
15674;BME280;7937;48.090;16.212;2024-03-02T14:39:01;96898.06;;;10.76;100.00
15674;BME280;7937;48.090;16.212;2024-03-02T14:42:03;96893.75;;;10.60;100.00
15674;BME280;7937;48.090;16.212;2024-03-02T14:45:09;96898.00;;;10.56;100.00
15674;BME280;7937;48.090;16.212;2024-03-02T14:48:11;96905.88;;;10.30;100.00
15674;BME280;7937;48.090;16.212;2024-03-02T14:51:14;96904.06;;;10.41;100.00
15674;BME280;7937;48.090;16.212;2024-03-02T14:54:16;96884.66;;;10.03;100.00
15674;BME280;7937;48.090;16.212;2024-03-02T14:57:18;96905.22;;;10.13;100.00
15674;BME280;7937;48.090;16.212;2024-03-02T15:00:20;96910.00;;;10.11;100.00
15674;BME280;7937;48.090;16.212;2024-03-02T15:03:23;96916.41;;;10.15;100.00
15674;BME280;7937;48.090;16.212;2024-03-02T15:06:25;96917.72;;;10.13;100.00
15674;BME280;7937;48.090;16.212;2024-03-02T15:09:27;96904.34;;;10.02;100.00
15674;BME280;7937;48.090;16.212;2024-03-02T15:12:30;96909.34;;;9.94;100.00
15674;BME280;7937;48.090;16.212;2024-03-02T15:15:33;96902.22;;;10.04;100.00
15674;BME280;7937;48.090;16.212;2024-03-02T15:18:35;96902.19;;;9.99;100.00
15674;BME280;7937;48.090;16.212;2024-03-02T15:21:38;96901.34;;;9.89;100.00
15674;BME280;7937;48.090;16.212;2024-03-02T15:24:40;96901.00;;;9.80;100.00
15674;BME280;7937;48.090;16.212;2024-03-02T15:27:43;96897.81;;;9.78;100.00
15674;BME280;7937;48.090;16.212;2024-03-02T15:30:45;96895.94;;;9.78;100.00
15674;BME280;7937;48.090;16.212;2024-03-02T15:33:47;96898.91;;;9.82;100.00
15674;BME280;7937;48.090;16.212;2024-03-02T15:36:50;96893.03;;;9.80;100.00
15674;BME280;7937;48.090;16.212;2024-03-02T15:39:52;96900.22;;;9.79;100.00
15674;BME280;7937;48.090;16.212;2024-03-02T15:43:01;96903.97;;;9.83;100.00
15674;BME280;7937;48.090;16.212;2024-03-02T15:46:03;96891.97;;;9.76;100.00
15674;BME280;7937;48.090;16.212;2024-03-02T15:49:05;96895.03;;;9.63;100.00
15674;BME280;7937;48.090;16.212;2024-03-02T15:52:10;96894.78;;;9.64;100.00
15674;BME280;7937;48.090;16.212;2024-03-02T15:55:12;96877.16;;;9.53;100.00
15674;BME280;7937;48.090;16.212;2024-03-02T15:58:15;96904.03;;;9.56;100.00
15674;BME280;7937;48.090;16.212;2024-03-02T16:01:17;96909.69;;;9.65;100.00
15674;BME280;7937;48.090;16.212;2024-03-02T16:04:20;96896.94;;;9.67;100.00
15674;BME280;7937;48.090;16.212;2024-03-02T16:07:23;96895.00;;;9.57;100.00
15674;BME280;7937;48.090;16.212;2024-03-02T16:10:25;96898.00;;;9.66;100.00
15674;BME280;7937;48.090;16.212;2024-03-02T16:13:28;96891.06;;;9.65;100.00